Flight Track Log - Related Links

Times and Time Zones

All times are in EST time to prevent confusion due to time zone crossing. See the VH-SKC flight status page for this flight to view local times or setup timezone preferences in your user account.


Time Position Orientation Groundspeed Altitude Reporting Facility
EST Latitude Longitude Course Direction KTS MPH feet Rate Location/Type
Sat 02:42:28 AM -16.6061 122.8587 360° North 300  Level Aus ATC (Calculated)
Sat 02:43:23 AM -16.6061 122.8587 204° Southwest 300  Level Aus ATC (Calculated)
Sat 02:44:50 AM -16.6899 122.8200 24° Northeast 300  Level Aus ATC (Calculated)
Sat 02:45:00 AM -16.6624 122.8328 204° Southwest  Level FlightAware Approximate
Sat 02:45:43 AM -16.6899 122.8200 204° Southwest 300  Level Aus ATC (Calculated)
Sat 02:46:00 AM -16.7306 122.8013 204° Southwest  Level FlightAware Approximate
Sat 02:46:23 AM -16.6899 122.8200 360° North 300  Level Aus ATC (Calculated)
Sat 02:47:06 AM -16.6899 122.8200 360° North 300  Level Aus ATC (Calculated)
Sat 02:47:36 AM -16.6899 122.8200 204° Southwest 300  Level Aus ATC (Calculated)
Sat 02:49:00 AM -16.7387 122.7975 204° Southwest  Level FlightAware Approximate
Sat 02:50:00 AM -16.7735 122.7814 204° Southwest  Level FlightAware Approximate
Sat 02:50:34 AM -16.8471 122.7474 204° Southwest 300  Level Aus ATC (Calculated)
Sat 02:52:00 AM -16.8970 122.7243 204° Southwest  Level FlightAware Approximate
Sat 02:52:49 AM -16.9158 122.7156 204° Southwest 300  Level Aus ATC (Calculated)
Sat 02:53:00 AM -16.9318 122.7081 204° Southwest  Level FlightAware Approximate
Sat 02:54:00 AM -16.9570 122.6965 204° Southwest  Level FlightAware Approximate
Sat 02:55:00 AM -16.9918 122.6803 204° Southwest  Level FlightAware Approximate
Sat 02:56:00 AM -17.0266 122.6642 204° Southwest  Level FlightAware Approximate
Sat 02:57:00 AM -17.0614 122.6480 204° Southwest  Level FlightAware Approximate
Sat 02:58:00 AM -17.0963 122.6319 204° Southwest  Level FlightAware Approximate
Sat 02:59:00 AM -17.1311 122.6157 204° Southwest  Level FlightAware Approximate
Sat 03:00:00 AM -17.1659 122.5995 204° Southwest  Level FlightAware Approximate
Sat 03:00:31 AM -17.2380 122.5660 24° Northeast 300  Level Aus ATC (Calculated)
Sat 03:01:00 AM -17.2007 122.5834 204° Southwest  Level FlightAware Approximate
Sat 03:02:00 AM -17.2896 122.5420 204° Southwest  Level FlightAware Approximate
Sat 03:03:00 AM -17.3244 122.5258 204° Southwest  Level FlightAware Approximate
Sat 03:04:00 AM -17.3592 122.5097 204° Southwest  Level FlightAware Approximate
Sat 03:05:00 AM -17.3940 122.4934 204° Southwest  Level FlightAware Approximate
Sat 03:06:00 AM -17.4288 122.4772 204° Southwest  Level FlightAware Approximate
Sat 03:06:23 AM -17.5037 122.4423 204° Southwest 300  Level Aus ATC (Calculated)
Sat 03:08:00 AM -17.5599 122.4161 204° Southwest  Level FlightAware Approximate
Sat 03:09:00 AM -17.5947 122.3998 204° Southwest  Level FlightAware Approximate
Sat 03:10:00 AM -17.6295 122.3836 204° Southwest  Level FlightAware Approximate
Sat 03:10:04 AM -17.6697 122.3648 360° North 300  Level Aus ATC (Calculated)
Sat 03:10:04 AM -17.6697 122.3648 204° Southwest 300  Level Aus ATC (Calculated)
Sat 03:12:00 AM -17.7369 122.3334 204° Southwest  Level FlightAware Approximate
Sat 03:13:00 AM -17.7717 122.3171 204° Southwest  Level FlightAware Approximate
Sat 03:14:00 AM -17.8065 122.3008 204° Southwest  Level FlightAware Approximate
Sat 03:15:00 AM -17.8413 122.2845 204° Southwest  Level FlightAware Approximate
Sat 03:16:00 AM -17.8761 122.2682 204° Southwest  Level FlightAware Approximate
Sat 03:17:00 AM -17.9109 122.2519 204° Southwest  Level FlightAware Approximate
Sat 03:18:00 AM -17.9457 122.2356 204° Southwest  Level FlightAware Approximate
Sat 03:19:00 AM -17.9447 122.2317 204° Southwest  Level Estimated

Login

Don't have an account? Register now (free) for customized features, flight alerts, and more!